Time;durP1;ratioP1;P1;durP2;ratioP2;P2;SDS_P1;SDS_P2;PMS_P1;PMS_P2;Temp;Humidity;BMP_temperature;BMP_pressure;BME280_temperature;BME280_humidity;BME280_pressure;Samples;Min_cycle;Max_cycle;Signal;HPM_P1;HPM_P2
2023/03/09 00:02:25;;;;;;;;;;;1.90;99.90;;;;;;5091540;28;19991;-44
2023/03/09 00:04:52;;;;;;;;;;;1.90;99.90;;;;;;5091581;28;20005;-42
2023/03/09 00:07:19;;;;;;;;;;;1.90;99.90;;;;;;5090826;28;19947;-43
2023/03/09 00:09:47;;;;;;;;;;;1.90;99.90;;;;;;5072885;28;20392;-44
2023/03/09 00:12:14;;;;;;;;;;;1.90;99.90;;;;;;5090946;28;19947;-45
2023/03/09 00:14:41;;;;;;;;;;;1.90;99.90;;;;;;5068344;28;19979;-41
2023/03/09 00:17:09;;;;;;;;;;;1.90;99.90;;;;;;5070846;28;20057;-43
2023/03/09 00:19:36;;;;;;;;;;;1.90;99.90;;;;;;5088884;28;19990;-44
2023/03/09 00:22:02;;;;;;;;;;;1.90;99.90;;;;;;5071969;28;19996;-45
2023/03/09 00:24:29;;;;;;;;;;;1.80;99.90;;;;;;5089474;28;20039;-44
2023/03/09 00:26:56;;;;;;;;;;;1.80;99.90;;;;;;5091127;28;20404;-40
2023/03/09 00:29:23;;;;;;;;;;;1.80;99.90;;;;;;5071950;28;20457;-43
2023/03/09 00:31:49;;;;;;;;;;;1.80;99.90;;;;;;5093076;28;20007;-41
2023/03/09 00:34:18;;;;;;;;;;;1.80;99.90;;;;;;5092600;28;19975;-44
2023/03/09 00:36:44;;;;;;;;;;;1.80;99.90;;;;;;5071972;28;19996;-42
2023/03/09 00:39:11;;;;;;;;;;;1.70;99.90;;;;;;5092774;28;19943;-44
2023/03/09 00:41:38;;;;;;;;;;;1.70;99.90;;;;;;5073799;28;20008;-42
2023/03/09 00:44:05;;;;;;;;;;;1.70;99.90;;;;;;5074242;28;20418;-45
2023/03/09 00:46:31;;;;;;;;;;;1.70;99.90;;;;;;5090953;28;20581;-44
2023/03/09 00:48:58;;;;;;;;;;;1.60;99.90;;;;;;5072828;28;20385;-44
2023/03/09 00:51:26;;;;;;;;;;;1.70;99.90;;;;;;5075385;28;19966;-45
2023/03/09 00:53:53;;;;;;;;;;;1.60;99.90;;;;;;5073978;28;19988;-41
2023/03/09 00:56:20;;;;;;;;;;;1.70;99.90;;;;;;5073652;28;19937;-43
2023/03/09 00:58:47;;;;;;;;;;;1.70;99.90;;;;;;5072133;28;20411;-40
2023/03/09 01:01:14;;;;;;;;;;;1.60;99.90;;;;;;5070340;28;19937;-41
2023/03/09 01:03:41;;;;;;;;;;;1.60;99.90;;;;;;5092601;28;20481;-40
2023/03/09 01:06:07;;;;;;;;;;;1.60;99.90;;;;;;5075350;28;19944;-43
2023/03/09 01:08:36;;;;;;;;;;;1.60;99.90;;;;;;5091167;28;19989;-44
2023/03/09 01:11:05;;;;;;;;;;;1.60;99.90;;;;;;5074470;28;19942;-43
2023/03/09 01:13:31;;;;;;;;;;;1.60;99.90;;;;;;5072329;28;19990;-41
2023/03/09 01:15:58;;;;;;;;;;;1.50;99.90;;;;;;5073548;28;19941;-42
2023/03/09 01:18:25;;;;;;;;;;;1.60;99.90;;;;;;5071720;28;20012;-44
2023/03/09 01:20:51;;;;;;;;;;;1.50;99.90;;;;;;5091469;28;19946;-44
2023/03/09 01:23:18;;;;;;;;;;;1.50;99.90;;;;;;5089408;28;19970;-44
2023/03/09 01:25:46;;;;;;;;;;;1.60;99.90;;;;;;5068537;28;20311;-46
2023/03/09 01:28:12;;;;;;;;;;;1.50;99.90;;;;;;5072507;28;20413;-39
2023/03/09 01:30:39;;;;;;;;;;;1.50;99.90;;;;;;5073109;28;19962;-42
2023/03/09 01:33:06;;;;;;;;;;;1.50;99.90;;;;;;5091913;28;19985;-43
2023/03/09 01:35:32;;;;;;;;;;;1.50;99.90;;;;;;5070051;28;19941;-44
2023/03/09 01:37:59;;;;;;;;;;;1.50;99.90;;;;;;5070176;28;19947;-43
2023/03/09 01:40:26;;;;;;;;;;;1.50;99.90;;;;;;5074366;28;19944;-42
2023/03/09 01:42:57;;;;;;;;;;;1.40;99.90;;;;;;5072939;28;19943;-44
2023/03/09 01:45:43;;;;;;;;;;;1.40;99.90;;;;;;5090638;28;20029;-42
2023/03/09 01:48:09;;;;;;;;;;;1.40;99.90;;;;;;5071656;28;20035;-44
2023/03/09 01:50:36;;;;;;;;;;;1.40;99.90;;;;;;5091143;28;20016;-44
2023/03/09 01:53:03;;;;;;;;;;;1.40;99.90;;;;;;5091842;28;20361;-47
2023/03/09 01:55:31;;;;;;;;;;;1.40;99.90;;;;;;5091032;28;19943;-44
2023/03/09 01:58:00;;;;;;;;;;;1.40;99.90;;;;;;5071288;28;20013;-40
2023/03/09 02:00:27;;;;;;;;;;;1.30;99.90;;;;;;5072290;28;19999;-43
2023/03/09 02:02:54;;;;;;;;;;;1.30;99.90;;;;;;5089204;28;20433;-42
2023/03/09 02:05:21;;;;;;;;;;;1.40;99.90;;;;;;5089346;28;20019;-43
2023/03/09 02:07:48;;;;;;;;;;;1.40;99.90;;;;;;5073165;28;20037;-43
2023/03/09 02:10:17;;;;;;;;;;;1.40;99.90;;;;;;5073391;28;19985;-41
2023/03/09 02:12:44;;;;;;;;;;;1.30;99.90;;;;;;5089153;28;19942;-42
2023/03/09 02:15:12;;;;;;;;;;;1.40;99.90;;;;;;5070933;28;20027;-44
2023/03/09 02:17:39;;;;;;;;;;;1.30;99.90;;;;;;5072874;28;19984;-45
2023/03/09 02:20:08;;;;;;;;;;;1.40;99.90;;;;;;5072831;28;20000;-42
2023/03/09 02:22:35;;;;;;;;;;;1.30;99.90;;;;;;5054725;28;20442;-41
2023/03/09 02:25:05;;;;;;;;;;;1.40;99.90;;;;;;5068051;28;19976;-43
2023/03/09 02:27:33;;;;;;;;;;;1.40;99.90;;;;;;5072587;28;19939;-44
2023/03/09 02:29:59;;;;;;;;;;;1.40;99.90;;;;;;5089804;28;20434;-42
2023/03/09 02:32:26;;;;;;;;;;;1.40;99.90;;;;;;5089516;28;19990;-44
2023/03/09 02:34:52;;;;;;;;;;;1.40;99.90;;;;;;5091576;28;20437;-46
2023/03/09 02:37:23;;;;;;;;;;;1.40;99.90;;;;;;5070352;28;20030;-44
2023/03/09 02:39:50;;;;;;;;;;;1.30;99.90;;;;;;5088947;28;19936;-43
2023/03/09 02:42:18;;;;;;;;;;;1.40;99.90;;;;;;5072976;28;20367;-44
2023/03/09 02:44:46;;;;;;;;;;;1.40;99.90;;;;;;5071158;28;20209;-45
2023/03/09 02:47:14;;;;;;;;;;;1.30;99.90;;;;;;5070613;28;19991;-42
2023/03/09 02:49:41;;;;;;;;;;;1.40;99.90;;;;;;5087121;28;19942;-40
2023/03/09 02:52:07;;;;;;;;;;;1.40;99.90;;;;;;5092331;28;19958;-46
2023/03/09 02:54:34;;;;;;;;;;;1.30;99.90;;;;;;5077884;28;20070;-42
2023/03/09 02:57:00;;;;;;;;;;;1.30;99.90;;;;;;5075378;28;19998;-43
2023/03/09 02:59:27;;;;;;;;;;;1.40;99.90;;;;;;5092948;28;19999;-44
2023/03/09 03:01:55;;;;;;;;;;;1.40;99.90;;;;;;5093671;28;20349;-44
2023/03/09 03:04:22;;;;;;;;;;;1.40;99.90;;;;;;5093984;28;20405;-43
2023/03/09 03:06:48;;;;;;;;;;;1.40;99.90;;;;;;5074435;28;19932;-44
2023/03/09 03:09:15;;;;;;;;;;;1.30;99.90;;;;;;5091976;28;20300;-44
2023/03/09 03:11:42;;;;;;;;;;;1.40;99.90;;;;;;5074851;28;20438;-45
2023/03/09 03:14:08;;;;;;;;;;;1.40;99.90;;;;;;5093361;28;20430;-43
2023/03/09 03:16:35;;;;;;;;;;;1.40;99.90;;;;;;5094510;28;19948;-43
2023/03/09 03:19:03;;;;;;;;;;;1.40;99.90;;;;;;5077025;28;20012;-45
2023/03/09 03:21:30;;;;;;;;;;;1.30;99.90;;;;;;5074840;28;20402;-42
2023/03/09 03:23:56;;;;;;;;;;;1.30;99.90;;;;;;5075916;28;20203;-42
2023/03/09 03:26:23;;;;;;;;;;;1.30;99.90;;;;;;5074766;28;20002;-46
2023/03/09 03:28:50;;;;;;;;;;;1.40;99.90;;;;;;5093481;28;19991;-41
2023/03/09 03:31:16;;;;;;;;;;;1.40;99.90;;;;;;5074146;28;20057;-45
2023/03/09 03:33:43;;;;;;;;;;;1.40;99.90;;;;;;5075798;28;19998;-44
2023/03/09 03:36:11;;;;;;;;;;;1.40;99.90;;;;;;5073836;28;20352;-44
2023/03/09 03:38:37;;;;;;;;;;;1.30;99.90;;;;;;5073070;28;19991;-45
2023/03/09 03:41:04;;;;;;;;;;;1.40;99.90;;;;;;5076299;28;20365;-44
2023/03/09 03:43:31;;;;;;;;;;;1.40;99.90;;;;;;5092851;28;20411;-43
2023/03/09 03:45:57;;;;;;;;;;;1.40;99.90;;;;;;5076010;28;19999;-48
2023/03/09 03:48:24;;;;;;;;;;;1.30;99.90;;;;;;5073876;28;19990;-48
2023/03/09 03:50:51;;;;;;;;;;;1.40;99.90;;;;;;5092694;28;20013;-43
2023/03/09 03:53:19;;;;;;;;;;;1.30;99.90;;;;;;5094097;28;20006;-43
2023/03/09 03:55:45;;;;;;;;;;;1.30;99.90;;;;;;5092032;28;19983;-45
2023/03/09 03:58:12;;;;;;;;;;;1.30;99.90;;;;;;5070966;28;20063;-40
2023/03/09 04:00:39;;;;;;;;;;;1.30;99.90;;;;;;5091873;28;19946;-43
2023/03/09 04:03:06;;;;;;;;;;;1.30;99.90;;;;;;5093514;28;19937;-43
2023/03/09 04:05:33;;;;;;;;;;;1.20;99.90;;;;;;5076615;28;20451;-45
2023/03/09 04:07:59;;;;;;;;;;;1.20;99.90;;;;;;5091739;28;19939;-47
2023/03/09 04:10:28;;;;;;;;;;;1.20;99.90;;;;;;5089309;28;19948;-44
2023/03/09 04:12:55;;;;;;;;;;;1.20;99.90;;;;;;5091256;28;20313;-39
2023/03/09 04:15:22;;;;;;;;;;;1.20;99.90;;;;;;5092348;28;19973;-44
2023/03/09 04:17:48;;;;;;;;;;;1.30;99.90;;;;;;5075061;28;19991;-44
2023/03/09 04:20:15;;;;;;;;;;;1.20;99.90;;;;;;5063915;28;20062;-44
2023/03/09 04:22:42;;;;;;;;;;;1.30;99.90;;;;;;5089328;28;19941;-45
2023/03/09 04:25:09;;;;;;;;;;;1.20;99.90;;;;;;5069975;28;19940;-42
2023/03/09 04:27:37;;;;;;;;;;;1.20;99.90;;;;;;5075820;28;19939;-43
2023/03/09 04:30:04;;;;;;;;;;;1.20;99.90;;;;;;5072190;28;19976;-42
2023/03/09 04:32:31;;;;;;;;;;;1.20;99.90;;;;;;5074915;28;20391;-42
2023/03/09 04:34:57;;;;;;;;;;;1.20;99.90;;;;;;5091608;28;20446;-45
2023/03/09 04:37:24;;;;;;;;;;;1.20;99.90;;;;;;5089506;28;20442;-45
2023/03/09 04:39:50;;;;;;;;;;;1.20;99.90;;;;;;5090519;28;19996;-45
2023/03/09 04:42:17;;;;;;;;;;;1.20;99.90;;;;;;5069341;28;19994;-43
2023/03/09 04:44:45;;;;;;;;;;;1.20;99.90;;;;;;5087508;28;19944;-45
2023/03/09 04:47:12;;;;;;;;;;;1.20;99.90;;;;;;5071080;28;20038;-46
2023/03/09 04:49:39;;;;;;;;;;;1.20;99.90;;;;;;5092893;28;19939;-42
2023/03/09 04:52:05;;;;;;;;;;;1.20;99.90;;;;;;5074608;28;20030;-46
2023/03/09 04:54:32;;;;;;;;;;;1.20;99.90;;;;;;5072047;28;19989;-47
2023/03/09 04:56:59;;;;;;;;;;;1.20;99.90;;;;;;5089010;28;19941;-42
2023/03/09 04:59:26;;;;;;;;;;;1.20;99.90;;;;;;5089349;28;20077;-45
2023/03/09 05:01:54;;;;;;;;;;;1.20;99.90;;;;;;5090738;28;20028;-48
2023/03/09 05:04:20;;;;;;;;;;;1.20;99.90;;;;;;5090340;28;19941;-45
2023/03/09 05:06:47;;;;;;;;;;;1.20;99.90;;;;;;5089187;28;19934;-40
2023/03/09 05:09:14;;;;;;;;;;;1.20;99.90;;;;;;5069008;28;19933;-43
2023/03/09 05:11:41;;;;;;;;;;;1.20;99.90;;;;;;5068371;28;19999;-38
2023/03/09 05:14:07;;;;;;;;;;;1.20;99.90;;;;;;5069382;28;20053;-46
2023/03/09 05:16:34;;;;;;;;;;;1.20;99.90;;;;;;5072759;28;19981;-47
2023/03/09 05:19:02;;;;;;;;;;;1.20;99.90;;;;;;5071945;28;20580;-47
2023/03/09 05:21:28;;;;;;;;;;;1.20;99.90;;;;;;5092757;28;19941;-48
2023/03/09 05:23:55;;;;;;;;;;;1.20;99.90;;;;;;5090541;28;19935;-43
2023/03/09 05:26:22;;;;;;;;;;;1.20;99.90;;;;;;5072754;28;19939;-47
2023/03/09 05:28:49;;;;;;;;;;;1.20;99.90;;;;;;5075224;28;19943;-42
2023/03/09 05:31:16;;;;;;;;;;;1.10;99.90;;;;;;5071046;28;19938;-46
2023/03/09 05:33:42;;;;;;;;;;;1.20;99.90;;;;;;5070904;28;19981;-45
2023/03/09 05:36:17;;;;;;;;;;;1.10;99.90;;;;;;5091184;28;19939;-46
2023/03/09 05:38:44;;;;;;;;;;;1.10;99.90;;;;;;5073384;28;20010;-47
2023/03/09 05:41:10;;;;;;;;;;;1.10;99.90;;;;;;5073481;28;19939;-46
2023/03/09 05:43:41;;;;;;;;;;;1.10;99.90;;;;;;5093032;28;19940;-44
2023/03/09 05:46:08;;;;;;;;;;;1.10;99.90;;;;;;5089176;28;19939;-44
2023/03/09 05:48:34;;;;;;;;;;;1.10;99.90;;;;;;5071555;28;19940;-47
2023/03/09 05:51:01;;;;;;;;;;;1.10;99.90;;;;;;5074270;28;19943;-42
2023/03/09 05:53:29;;;;;;;;;;;1.00;99.90;;;;;;5072587;28;19999;-43
2023/03/09 05:55:56;;;;;;;;;;;1.10;99.90;;;;;;5073086;28;20028;-41
2023/03/09 05:58:23;;;;;;;;;;;1.10;99.90;;;;;;5071781;28;19939;-44
2023/03/09 06:00:52;;;;;;;;;;;1.10;99.90;;;;;;5070873;28;19939;-43
2023/03/09 06:03:18;;;;;;;;;;;1.10;99.90;;;;;;5071160;28;19937;-45
2023/03/09 06:05:45;;;;;;;;;;;1.10;99.90;;;;;;5084748;28;19996;-47
2023/03/09 06:08:11;;;;;;;;;;;1.10;99.90;;;;;;5086295;28;20483;-44
2023/03/09 06:10:39;;;;;;;;;;;1.10;99.90;;;;;;5070665;28;19941;-42
2023/03/09 06:13:07;;;;;;;;;;;1.10;99.90;;;;;;5070550;28;20046;-47
2023/03/09 06:15:33;;;;;;;;;;;1.10;99.90;;;;;;5067465;28;19942;-47
2023/03/09 06:18:00;;;;;;;;;;;1.10;99.90;;;;;;5066843;28;20415;-43
2023/03/09 06:20:26;;;;;;;;;;;1.10;99.90;;;;;;5068666;28;19986;-44
2023/03/09 06:22:53;;;;;;;;;;;1.10;99.90;;;;;;5069944;28;19935;-44
2023/03/09 06:25:20;;;;;;;;;;;1.10;99.90;;;;;;5073704;28;19939;-44
2023/03/09 06:27:48;;;;;;;;;;;1.10;99.90;;;;;;5074450;28;20012;-46
2023/03/09 06:30:15;;;;;;;;;;;1.20;99.90;;;;;;5092572;28;19978;-42
2023/03/09 06:32:41;;;;;;;;;;;1.20;99.90;;;;;;5073824;28;20391;-46
2023/03/09 06:35:08;;;;;;;;;;;1.20;99.90;;;;;;5092359;28;20024;-45
2023/03/09 06:37:35;;;;;;;;;;;1.20;99.90;;;;;;5086114;28;20394;-44
2023/03/09 06:40:01;;;;;;;;;;;1.20;99.90;;;;;;5082440;28;20423;-42
2023/03/09 06:42:28;;;;;;;;;;;1.20;99.90;;;;;;5072494;28;19985;-46
2023/03/09 06:44:56;;;;;;;;;;;1.20;99.90;;;;;;5092146;28;19994;-40
2023/03/09 06:47:23;;;;;;;;;;;1.20;99.90;;;;;;5071351;28;19949;-44
2023/03/09 06:49:49;;;;;;;;;;;1.20;99.90;;;;;;5085740;28;20041;-43
2023/03/09 06:52:16;;;;;;;;;;;1.10;99.90;;;;;;5090013;28;19956;-47
2023/03/09 06:54:43;;;;;;;;;;;1.30;99.90;;;;;;5084619;28;19951;-41
2023/03/09 06:57:09;;;;;;;;;;;1.30;99.90;;;;;;5082095;28;19937;-45
2023/03/09 06:59:36;;;;;;;;;;;1.30;99.90;;;;;;5021519;28;1777043;-43
2023/03/09 07:02:04;;;;;;;;;;;1.30;99.90;;;;;;5062387;28;19999;-44
2023/03/09 07:04:31;;;;;;;;;;;1.40;99.90;;;;;;5093850;28;19971;-45
2023/03/09 07:06:57;;;;;;;;;;;1.30;99.90;;;;;;5094082;28;19936;-44
2023/03/09 07:09:24;;;;;;;;;;;1.30;99.90;;;;;;5093225;28;20021;-43
2023/03/09 07:11:51;;;;;;;;;;;1.40;99.90;;;;;;5093451;28;19978;-45
2023/03/09 07:14:17;;;;;;;;;;;1.40;99.90;;;;;;5076443;28;19951;-43
2023/03/09 07:16:44;;;;;;;;;;;1.50;99.90;;;;;;5076400;28;19942;-45
2023/03/09 07:19:12;;;;;;;;;;;1.50;99.90;;;;;;5093834;28;19959;-44
2023/03/09 07:21:38;;;;;;;;;;;1.50;99.90;;;;;;5093654;28;20294;-44
2023/03/09 07:24:05;;;;;;;;;;;1.60;99.90;;;;;;5093963;28;19987;-44
2023/03/09 07:26:32;;;;;;;;;;;1.60;99.90;;;;;;5075928;28;19943;-48
2023/03/09 07:28:59;;;;;;;;;;;1.60;99.90;;;;;;5075782;28;19944;-42
2023/03/09 07:31:26;;;;;;;;;;;1.60;99.90;;;;;;5075874;28;19991;-46
2023/03/09 07:33:53;;;;;;;;;;;1.60;99.90;;;;;;5092997;28;19960;-39
2023/03/09 07:36:21;;;;;;;;;;;1.60;99.90;;;;;;5093482;28;20378;-42
2023/03/09 07:38:49;;;;;;;;;;;1.70;99.90;;;;;;5092567;28;20042;-47
2023/03/09 07:41:15;;;;;;;;;;;1.70;99.90;;;;;;5090183;28;20381;-43
2023/03/09 07:43:43;;;;;;;;;;;1.70;99.90;;;;;;5093427;28;19989;-44
2023/03/09 07:46:10;;;;;;;;;;;1.70;99.90;;;;;;5074532;28;20186;-45
2023/03/09 07:48:37;;;;;;;;;;;1.80;99.90;;;;;;5093422;28;20264;-46
2023/03/09 07:51:04;;;;;;;;;;;1.80;99.90;;;;;;5088366;28;19935;-45
2023/03/09 07:53:32;;;;;;;;;;;1.80;99.90;;;;;;5074985;28;20299;-39
2023/03/09 07:56:00;;;;;;;;;;;1.80;99.90;;;;;;5074268;28;20012;-45
2023/03/09 07:58:27;;;;;;;;;;;1.90;99.90;;;;;;5075355;28;20045;-43
2023/03/09 08:00:54;;;;;;;;;;;1.90;99.90;;;;;;5074938;28;20308;-42
2023/03/09 08:03:20;;;;;;;;;;;1.90;99.90;;;;;;5094681;28;19985;-44
2023/03/09 08:05:49;;;;;;;;;;;1.90;99.90;;;;;;5072418;28;19929;-41
2023/03/09 08:08:16;;;;;;;;;;;2.00;99.90;;;;;;5070997;28;19936;-40
2023/03/09 08:10:48;;;;;;;;;;;1.90;99.90;;;;;;5092606;28;19982;-40
2023/03/09 08:13:15;;;;;;;;;;;2.00;99.90;;;;;;5074966;28;19988;-40
2023/03/09 08:15:42;;;;;;;;;;;2.00;99.90;;;;;;5093504;28;19937;-41
2023/03/09 08:18:08;;;;;;;;;;;2.10;99.90;;;;;;5091574;28;20048;-41
2023/03/09 08:20:36;;;;;;;;;;;2.10;99.90;;;;;;5089332;28;19960;-43
2023/03/09 08:23:02;;;;;;;;;;;2.10;99.90;;;;;;5071748;28;19944;-40
2023/03/09 08:25:29;;;;;;;;;;;2.20;99.90;;;;;;5060881;28;19947;-40
2023/03/09 08:27:57;;;;;;;;;;;2.30;99.90;;;;;;5074864;28;19937;-41
2023/03/09 08:30:24;;;;;;;;;;;2.30;99.90;;;;;;5092646;28;19944;-42
2023/03/09 08:32:51;;;;;;;;;;;2.30;99.90;;;;;;5073566;28;19982;-41
2023/03/09 08:35:18;;;;;;;;;;;2.30;99.90;;;;;;5092899;28;20345;-43
2023/03/09 08:37:45;;;;;;;;;;;2.40;99.90;;;;;;5093027;28;19939;-43
2023/03/09 08:40:12;;;;;;;;;;;2.50;99.90;;;;;;5092617;28;19985;-43
2023/03/09 08:42:39;;;;;;;;;;;2.50;99.90;;;;;;5104677;28;19944;-42
2023/03/09 08:45:08;;;;;;;;;;;2.50;99.90;;;;;;5091893;28;19936;-40
2023/03/09 08:47:35;;;;;;;;;;;2.60;99.90;;;;;;5073807;28;19947;-43
2023/03/09 08:50:01;;;;;;;;;;;2.70;99.90;;;;;;5091849;28;19940;-40
2023/03/09 08:52:28;;;;;;;;;;;2.60;99.90;;;;;;5090562;28;19944;-43
2023/03/09 08:54:56;;;;;;;;;;;2.60;99.90;;;;;;5073759;28;19941;-43
2023/03/09 08:57:22;;;;;;;;;;;2.70;99.90;;;;;;5074325;28;20023;-40
2023/03/09 08:59:49;;;;;;;;;;;2.70;99.90;;;;;;5074164;28;19961;-45
2023/03/09 09:02:17;;;;;;;;;;;2.70;99.90;;;;;;5072931;28;19993;-41
2023/03/09 09:04:44;;;;;;;;;;;2.70;99.90;;;;;;5072792;28;19951;-42
2023/03/09 09:07:10;;;;;;;;;;;2.80;99.90;;;;;;5074050;28;19993;-43
2023/03/09 09:09:37;;;;;;;;;;;2.80;99.90;;;;;;5091134;28;20349;-43
2023/03/09 09:12:04;;;;;;;;;;;2.70;99.90;;;;;;5071909;28;19941;-42
2023/03/09 09:14:32;;;;;;;;;;;2.80;99.90;;;;;;5084670;28;19946;-44
2023/03/09 09:16:58;;;;;;;;;;;2.80;99.90;;;;;;5073886;28;19944;-43
2023/03/09 09:19:26;;;;;;;;;;;2.80;99.90;;;;;;5072797;28;19943;-44
2023/03/09 09:21:54;;;;;;;;;;;2.80;99.90;;;;;;5073857;28;19985;-41
2023/03/09 09:24:21;;;;;;;;;;;2.80;99.90;;;;;;5073716;28;19985;-47
2023/03/09 09:26:48;;;;;;;;;;;2.80;99.90;;;;;;5090370;28;19952;-45
2023/03/09 09:29:14;;;;;;;;;;;2.90;99.90;;;;;;5073660;28;19941;-45
2023/03/09 09:31:41;;;;;;;;;;;2.90;99.90;;;;;;5091421;28;19945;-42
2023/03/09 09:34:08;;;;;;;;;;;3.00;99.90;;;;;;5071552;28;19933;-42
2023/03/09 09:36:36;;;;;;;;;;;3.00;99.90;;;;;;5091726;28;20049;-43
2023/03/09 09:39:03;;;;;;;;;;;3.10;99.90;;;;;;5091521;28;19933;-40
2023/03/09 09:41:31;;;;;;;;;;;3.10;99.90;;;;;;5073168;28;20427;-40
2023/03/09 09:43:59;;;;;;;;;;;3.20;99.90;;;;;;5072138;28;19945;-43
2023/03/09 09:46:26;;;;;;;;;;;3.20;99.90;;;;;;5091153;28;19940;-43
2023/03/09 09:48:53;;;;;;;;;;;3.20;99.90;;;;;;5081753;28;20350;-42
2023/03/09 09:51:29;;;;;;;;;;;3.20;99.90;;;;;;5093832;28;20199;-41
2023/03/09 09:54:00;;;;;;;;;;;3.30;99.90;;;;;;5081446;28;20443;-42
2023/03/09 09:56:28;;;;;;;;;;;3.40;99.90;;;;;;5073442;28;20284;-43
2023/03/09 09:58:55;;;;;;;;;;;3.40;99.90;;;;;;5091352;28;20463;-47
2023/03/09 10:01:22;;;;;;;;;;;3.50;99.90;;;;;;5091012;28;19958;-45
2023/03/09 10:03:49;;;;;;;;;;;3.50;99.90;;;;;;5091330;28;19948;-42
2023/03/09 10:06:17;;;;;;;;;;;3.50;99.90;;;;;;5090176;28;19941;-42
2023/03/09 10:08:44;;;;;;;;;;;3.50;99.90;;;;;;5073289;28;19940;-40
2023/03/09 10:11:14;;;;;;;;;;;3.50;99.90;;;;;;5073247;28;20168;-44
2023/03/09 10:13:42;;;;;;;;;;;3.40;99.90;;;;;;5073287;28;20238;-40
2023/03/09 10:16:10;;;;;;;;;;;3.50;99.90;;;;;;5091313;28;19964;-44
2023/03/09 10:18:38;;;;;;;;;;;3.50;99.90;;;;;;5071871;28;19981;-45
2023/03/09 10:21:05;;;;;;;;;;;3.50;99.90;;;;;;5090689;28;20009;-42
2023/03/09 10:23:32;;;;;;;;;;;3.50;99.90;;;;;;5090665;28;20002;-43
2023/03/09 10:26:01;;;;;;;;;;;3.50;99.90;;;;;;5092473;28;20415;-45
2023/03/09 10:28:32;;;;;;;;;;;3.50;99.90;;;;;;5070731;28;19948;-41
2023/03/09 10:31:00;;;;;;;;;;;3.60;99.90;;;;;;5073084;28;19988;-43
2023/03/09 10:33:27;;;;;;;;;;;3.60;99.90;;;;;;5088829;28;19948;-41
2023/03/09 10:35:55;;;;;;;;;;;3.70;99.90;;;;;;5090013;28;19972;-43
2023/03/09 10:38:23;;;;;;;;;;;3.70;99.90;;;;;;5090629;28;19953;-43
2023/03/09 10:40:50;;;;;;;;;;;3.80;99.90;;;;;;5090392;28;19956;-41
2023/03/09 10:43:18;;;;;;;;;;;3.80;99.90;;;;;;5071448;28;19998;-43
2023/03/09 10:45:46;;;;;;;;;;;3.80;99.90;;;;;;5090620;28;20390;-42
2023/03/09 10:48:19;;;;;;;;;;;3.80;99.90;;;;;;5072729;28;19943;-41
2023/03/09 10:50:54;;;;;;;;;;;3.80;99.90;;;;;;5072451;28;20141;-44
2023/03/09 10:53:23;;;;;;;;;;;3.90;99.90;;;;;;5072746;28;19937;-40
2023/03/09 10:55:49;;;;;;;;;;;3.90;99.90;;;;;;5071603;28;19992;-43
2023/03/09 10:58:17;;;;;;;;;;;4.00;99.90;;;;;;5074299;28;20047;-42
2023/03/09 11:00:53;;;;;;;;;;;4.00;99.90;;;;;;5090566;28;19959;-42
2023/03/09 11:03:20;;;;;;;;;;;4.00;99.90;;;;;;5077943;28;20031;-40
2023/03/09 11:05:47;;;;;;;;;;;4.00;99.90;;;;;;5072211;28;20382;-45
2023/03/09 11:08:20;;;;;;;;;;;4.10;99.90;;;;;;5087650;28;20808;-44
2023/03/09 11:10:47;;;;;;;;;;;4.20;99.90;;;;;;5083909;28;19993;-46
2023/03/09 11:13:18;;;;;;;;;;;4.20;99.90;;;;;;5072844;28;19979;-46
2023/03/09 11:15:45;;;;;;;;;;;4.30;99.90;;;;;;5076222;28;20023;-43
2023/03/09 11:21:06;;;;;;;;;;;4.30;99.90;;;;;;5071835;28;19953;-45
2023/03/09 11:23:34;;;;;;;;;;;4.30;99.90;;;;;;5068232;28;19942;-46
2023/03/09 11:26:09;;;;;;;;;;;4.30;99.90;;;;;;5060835;28;19940;-43
2023/03/09 11:28:43;;;;;;;;;;;4.40;99.90;;;;;;5046794;28;19942;-45
2023/03/09 11:31:11;;;;;;;;;;;4.40;99.90;;;;;;5080240;28;19952;-43
2023/03/09 11:33:38;;;;;;;;;;;4.40;99.90;;;;;;5066638;28;19971;-42
2023/03/09 11:36:06;;;;;;;;;;;4.50;99.90;;;;;;5073323;28;19941;-42
2023/03/09 11:38:33;;;;;;;;;;;4.50;99.90;;;;;;5067399;28;19946;-42
2023/03/09 11:41:05;;;;;;;;;;;4.50;99.90;;;;;;5068159;28;20012;-46
2023/03/09 11:43:32;;;;;;;;;;;4.50;99.90;;;;;;5068323;28;19950;-43
2023/03/09 11:46:01;;;;;;;;;;;4.50;99.90;;;;;;5082809;28;19982;-46
2023/03/09 11:48:28;;;;;;;;;;;4.50;99.90;;;;;;5088675;28;19935;-42
2023/03/09 11:50:57;;;;;;;;;;;4.50;99.90;;;;;;5072491;28;19969;-42
2023/03/09 11:53:25;;;;;;;;;;;4.50;99.90;;;;;;5075631;28;20460;-44
2023/03/09 11:55:53;;;;;;;;;;;4.50;99.90;;;;;;5067270;28;19947;-43
2023/03/09 11:58:21;;;;;;;;;;;4.50;99.90;;;;;;5065445;28;19946;-45
2023/03/09 12:00:48;;;;;;;;;;;4.60;99.90;;;;;;5080389;28;19959;-46
2023/03/09 12:03:16;;;;;;;;;;;4.60;99.90;;;;;;5071997;28;19978;-41
2023/03/09 12:05:43;;;;;;;;;;;4.70;99.90;;;;;;5087708;28;19944;-44
2023/03/09 12:08:11;;;;;;;;;;;4.60;99.90;;;;;;5087166;28;19949;-44
2023/03/09 12:10:40;;;;;;;;;;;4.70;99.90;;;;;;5087925;28;19994;-46
2023/03/09 12:13:09;;;;;;;;;;;4.70;99.90;;;;;;5088753;28;19985;-42
2023/03/09 12:15:36;;;;;;;;;;;4.60;99.90;;;;;;5070464;28;20021;-42
2023/03/09 12:18:03;;;;;;;;;;;4.50;99.90;;;;;;5068549;28;19985;-43
2023/03/09 12:20:31;;;;;;;;;;;4.50;99.90;;;;;;5084280;28;20055;-43
2023/03/09 12:22:57;;;;;;;;;;;4.60;99.90;;;;;;5088672;28;19990;-44
2023/03/09 12:25:24;;;;;;;;;;;4.60;99.90;;;;;;5088528;28;19950;-42
2023/03/09 12:27:52;;;;;;;;;;;4.60;99.90;;;;;;5089736;28;19977;-41
2023/03/09 12:30:21;;;;;;;;;;;4.60;99.90;;;;;;5107793;28;20267;-43
2023/03/09 12:32:48;;;;;;;;;;;4.60;99.90;;;;;;5095177;28;19932;-42
2023/03/09 12:35:29;;;;;;;;;;;4.50;99.90;;;;;;5080788;28;21366;-44
2023/03/09 12:37:57;;;;;;;;;;;4.50;99.90;;;;;;5041318;28;19938;-44
2023/03/09 12:40:31;;;;;;;;;;;4.50;99.90;;;;;;5036884;28;19937;-44
2023/03/09 12:43:21;;;;;;;;;;;4.50;99.90;;;;;;5072682;28;20009;-46
2023/03/09 12:45:48;;;;;;;;;;;4.50;99.90;;;;;;5061500;28;19942;-45
2023/03/09 12:48:22;;;;;;;;;;;4.50;99.90;;;;;;5074738;28;19994;-43
2023/03/09 12:50:50;;;;;;;;;;;4.50;99.90;;;;;;5054345;28;19934;-44
2023/03/09 12:53:16;;;;;;;;;;;4.50;99.90;;;;;;5054404;28;19959;-46
2023/03/09 12:55:50;;;;;;;;;;;4.50;99.90;;;;;;5053652;28;19940;-40
2023/03/09 12:58:37;;;;;;;;;;;4.50;99.90;;;;;;5070677;28;19945;-44
2023/03/09 13:01:06;;;;;;;;;;;4.50;99.90;;;;;;5069422;28;19960;-44
2023/03/09 13:03:34;;;;;;;;;;;4.60;99.90;;;;;;5094569;28;19942;-41
2023/03/09 13:06:01;;;;;;;;;;;4.70;99.90;;;;;;5076728;28;19941;-45
2023/03/09 13:08:30;;;;;;;;;;;4.70;99.90;;;;;;5050561;28;20451;-45
2023/03/09 13:11:15;;;;;;;;;;;4.70;99.90;;;;;;5054120;28;19953;-42
2023/03/09 13:13:44;;;;;;;;;;;4.70;99.90;;;;;;5061500;28;19971;-43
2023/03/09 13:16:30;;;;;;;;;;;4.70;99.90;;;;;;5076513;28;20000;-48
2023/03/09 13:19:12;;;;;;;;;;;4.70;99.90;;;;;;5058626;28;19974;-45
2023/03/09 13:21:41;;;;;;;;;;;4.70;99.90;;;;;;5056112;28;20050;-45
2023/03/09 13:24:11;;;;;;;;;;;4.60;99.90;;;;;;5056393;28;19978;-44
2023/03/09 13:26:40;;;;;;;;;;;4.60;99.90;;;;;;5056234;28;19935;-42
2023/03/09 13:29:08;;;;;;;;;;;4.60;99.90;;;;;;5054847;28;19941;-41
2023/03/09 13:31:35;;;;;;;;;;;4.60;99.90;;;;;;5073069;28;20332;-44
2023/03/09 13:34:01;;;;;;;;;;;4.60;99.90;;;;;;5073949;28;19990;-43
2023/03/09 13:36:28;;;;;;;;;;;4.60;99.90;;;;;;5073733;28;20010;-43
2023/03/09 13:38:56;;;;;;;;;;;4.60;99.90;;;;;;5073578;28;20382;-44
2023/03/09 13:41:23;;;;;;;;;;;4.60;99.90;;;;;;5054205;28;19959;-43
2023/03/09 13:43:50;;;;;;;;;;;4.60;99.90;;;;;;5055050;28;20017;-44
2023/03/09 13:46:18;;;;;;;;;;;4.60;99.90;;;;;;5055316;28;19950;-44
2023/03/09 13:48:45;;;;;;;;;;;4.60;99.90;;;;;;5055799;28;20376;-41
2023/03/09 13:51:28;;;;;;;;;;;4.50;99.90;;;;;;5061481;28;19978;-44
2023/03/09 13:53:56;;;;;;;;;;;4.50;99.90;;;;;;5053571;28;20450;-45
2023/03/09 13:56:23;;;;;;;;;;;4.50;99.90;;;;;;5073630;28;20340;-43
2023/03/09 13:58:49;;;;;;;;;;;4.50;99.90;;;;;;5055561;28;20033;-44
2023/03/09 14:01:20;;;;;;;;;;;4.50;99.90;;;;;;5054701;28;20029;-45
2023/03/09 14:03:47;;;;;;;;;;;4.40;99.90;;;;;;5073018;28;19937;-45
2023/03/09 14:06:13;;;;;;;;;;;4.40;99.90;;;;;;5072136;28;19986;-44
2023/03/09 14:08:41;;;;;;;;;;;4.40;99.90;;;;;;5072953;28;19950;-44
2023/03/09 14:11:09;;;;;;;;;;;4.40;99.90;;;;;;5050922;28;19947;-44
2023/03/09 14:13:35;;;;;;;;;;;4.40;99.90;;;;;;5057574;28;19944;-45
2023/03/09 14:16:05;;;;;;;;;;;4.30;99.90;;;;;;5072997;28;20348;-45
2023/03/09 14:18:34;;;;;;;;;;;4.30;99.90;;;;;;5055198;28;19942;-43
2023/03/09 14:21:01;;;;;;;;;;;4.20;99.90;;;;;;5072510;28;19940;-44
2023/03/09 14:23:32;;;;;;;;;;;4.20;99.90;;;;;;5053865;28;19947;-43
2023/03/09 14:25:59;;;;;;;;;;;4.20;99.90;;;;;;5076998;28;19943;-46
2023/03/09 14:28:28;;;;;;;;;;;4.20;99.90;;;;;;5072852;28;19989;-44
2023/03/09 14:30:54;;;;;;;;;;;4.20;99.90;;;;;;5081311;28;20033;-41
2023/03/09 14:33:22;;;;;;;;;;;4.20;99.90;;;;;;5058976;28;19933;-42
2023/03/09 14:35:48;;;;;;;;;;;4.10;99.90;;;;;;5053715;28;19985;-40
2023/03/09 14:38:16;;;;;;;;;;;4.10;99.90;;;;;;5054938;28;20269;-45